sensor_id;sensor_type;location;lat;lon;timestamp;P1;durP1;ratioP1;P2;durP2;ratioP2
18647;SDS011;9453;50.294;18.644;2023-02-28T05:00:42;12.70;;;5.10;;
18647;SDS011;9453;50.294;18.644;2023-02-28T05:03:10;15.30;;;5.30;;
18647;SDS011;9453;50.294;18.644;2023-02-28T05:05:37;16.53;;;5.10;;
18647;SDS011;9453;50.294;18.644;2023-02-28T05:08:04;16.20;;;5.73;;
18647;SDS011;9453;50.294;18.644;2023-02-28T05:10:32;16.87;;;6.87;;
18647;SDS011;9453;50.294;18.644;2023-02-28T05:12:59;15.97;;;6.57;;
18647;SDS011;9453;50.294;18.644;2023-02-28T05:15:26;14.00;;;6.13;;
18647;SDS011;9453;50.294;18.644;2023-02-28T05:17:55;16.00;;;5.87;;
18647;SDS011;9453;50.294;18.644;2023-02-28T05:20:22;16.90;;;6.43;;
18647;SDS011;9453;50.294;18.644;2023-02-28T05:22:49;15.43;;;6.87;;
18647;SDS011;9453;50.294;18.644;2023-02-28T05:25:18;18.37;;;6.80;;
18647;SDS011;9453;50.294;18.644;2023-02-28T05:27:48;18.33;;;7.17;;
18647;SDS011;9453;50.294;18.644;2023-02-28T05:30:15;29.67;;;7.73;;
18647;SDS011;9453;50.294;18.644;2023-02-28T05:32:43;20.87;;;7.50;;
18647;SDS011;9453;50.294;18.644;2023-02-28T05:35:11;16.67;;;8.30;;
18647;SDS011;9453;50.294;18.644;2023-02-28T05:40:13;26.23;;;9.63;;
18647;SDS011;9453;50.294;18.644;2023-02-28T05:42:41;21.03;;;8.60;;
18647;SDS011;9453;50.294;18.644;2023-02-28T05:45:09;24.60;;;8.57;;
18647;SDS011;9453;50.294;18.644;2023-02-28T05:47:37;19.30;;;8.13;;
18647;SDS011;9453;50.294;18.644;2023-02-28T05:50:04;24.13;;;9.13;;
18647;SDS011;9453;50.294;18.644;2023-02-28T05:52:36;26.23;;;9.23;;
18647;SDS011;9453;50.294;18.644;2023-02-28T05:55:03;22.00;;;8.83;;
18647;SDS011;9453;50.294;18.644;2023-02-28T05:57:31;29.30;;;9.43;;
18647;SDS011;9453;50.294;18.644;2023-02-28T05:59:59;29.13;;;9.87;;
18647;SDS011;9453;50.294;18.644;2023-02-28T06:02:26;24.87;;;9.13;;
18647;SDS011;9453;50.294;18.644;2023-02-28T06:04:53;26.57;;;9.87;;
18647;SDS011;9453;50.294;18.644;2023-02-28T06:07:20;19.80;;;8.43;;
18647;SDS011;9453;50.294;18.644;2023-02-28T06:09:49;24.83;;;10.27;;
18647;SDS011;9453;50.294;18.644;2023-02-28T06:12:16;19.43;;;8.30;;
18647;SDS011;9453;50.294;18.644;2023-02-28T06:14:44;20.37;;;8.37;;
18647;SDS011;9453;50.294;18.644;2023-02-28T06:17:11;22.57;;;7.70;;
18647;SDS011;9453;50.294;18.644;2023-02-28T06:19:41;27.57;;;9.13;;
18647;SDS011;9453;50.294;18.644;2023-02-28T06:22:08;20.40;;;7.90;;
18647;SDS011;9453;50.294;18.644;2023-02-28T06:24:37;18.97;;;7.90;;
18647;SDS011;9453;50.294;18.644;2023-02-28T06:27:05;26.67;;;10.30;;
18647;SDS011;9453;50.294;18.644;2023-02-28T06:29:32;23.20;;;8.07;;
18647;SDS011;9453;50.294;18.644;2023-02-28T06:32:00;25.63;;;9.40;;
18647;SDS011;9453;50.294;18.644;2023-02-28T06:34:27;25.03;;;9.17;;
18647;SDS011;9453;50.294;18.644;2023-02-28T06:36:54;23.97;;;8.43;;
18647;SDS011;9453;50.294;18.644;2023-02-28T06:39:21;32.57;;;9.77;;
18647;SDS011;9453;50.294;18.644;2023-02-28T06:41:48;22.17;;;8.43;;
18647;SDS011;9453;50.294;18.644;2023-02-28T06:44:18;28.80;;;8.87;;
18647;SDS011;9453;50.294;18.644;2023-02-28T06:46:45;27.27;;;8.90;;
18647;SDS011;9453;50.294;18.644;2023-02-28T06:49:12;28.27;;;9.83;;
18647;SDS011;9453;50.294;18.644;2023-02-28T06:51:40;28.30;;;10.60;;
18647;SDS011;9453;50.294;18.644;2023-02-28T06:54:18;24.60;;;9.27;;
18647;SDS011;9453;50.294;18.644;2023-02-28T06:56:45;30.73;;;9.93;;
18647;SDS011;9453;50.294;18.644;2023-02-28T06:59:12;24.93;;;8.93;;
18647;SDS011;9453;50.294;18.644;2023-02-28T07:01:40;25.70;;;9.80;;
18647;SDS011;9453;50.294;18.644;2023-02-28T07:04:07;28.77;;;9.73;;
18647;SDS011;9453;50.294;18.644;2023-02-28T07:06:41;24.67;;;9.70;;
18647;SDS011;9453;50.294;18.644;2023-02-28T07:09:09;31.13;;;10.80;;
18647;SDS011;9453;50.294;18.644;2023-02-28T07:11:36;33.17;;;11.23;;
18647;SDS011;9453;50.294;18.644;2023-02-28T07:14:03;27.47;;;9.43;;
18647;SDS011;9453;50.294;18.644;2023-02-28T07:16:30;32.63;;;10.77;;
18647;SDS011;9453;50.294;18.644;2023-02-28T07:18:59;30.77;;;10.03;;
18647;SDS011;9453;50.294;18.644;2023-02-28T07:21:28;24.57;;;8.70;;
18647;SDS011;9453;50.294;18.644;2023-02-28T07:23:56;18.10;;;7.33;;
18647;SDS011;9453;50.294;18.644;2023-02-28T07:26:23;27.23;;;9.10;;
18647;SDS011;9453;50.294;18.644;2023-02-28T07:28:50;19.47;;;7.63;;
18647;SDS011;9453;50.294;18.644;2023-02-28T07:31:17;19.37;;;7.97;;
18647;SDS011;9453;50.294;18.644;2023-02-28T07:33:44;23.57;;;9.33;;
18647;SDS011;9453;50.294;18.644;2023-02-28T07:36:16;29.97;;;10.77;;
18647;SDS011;9453;50.294;18.644;2023-02-28T07:38:45;28.90;;;9.70;;
18647;SDS011;9453;50.294;18.644;2023-02-28T07:41:15;27.40;;;9.40;;
18647;SDS011;9453;50.294;18.644;2023-02-28T07:43:43;28.00;;;10.77;;
18647;SDS011;9453;50.294;18.644;2023-02-28T07:46:11;31.30;;;10.63;;
18647;SDS011;9453;50.294;18.644;2023-02-28T07:48:41;30.70;;;10.20;;
18647;SDS011;9453;50.294;18.644;2023-02-28T07:51:09;25.27;;;9.60;;
18647;SDS011;9453;50.294;18.644;2023-02-28T07:53:37;29.80;;;10.17;;
18647;SDS011;9453;50.294;18.644;2023-02-28T07:56:05;24.53;;;9.63;;
18647;SDS011;9453;50.294;18.644;2023-02-28T07:58:33;24.17;;;7.90;;
18647;SDS011;9453;50.294;18.644;2023-02-28T08:01:04;28.30;;;9.97;;
18647;SDS011;9453;50.294;18.644;2023-02-28T08:03:33;21.77;;;8.93;;
18647;SDS011;9453;50.294;18.644;2023-02-28T08:06:00;24.00;;;9.57;;
18647;SDS011;9453;50.294;18.644;2023-02-28T08:08:28;31.30;;;9.40;;
18647;SDS011;9453;50.294;18.644;2023-02-28T08:10:59;24.73;;;8.20;;
18647;SDS011;9453;50.294;18.644;2023-02-28T08:13:27;20.03;;;7.40;;
18647;SDS011;9453;50.294;18.644;2023-02-28T08:15:55;25.03;;;8.97;;
18647;SDS011;9453;50.294;18.644;2023-02-28T08:18:22;23.33;;;8.23;;
18647;SDS011;9453;50.294;18.644;2023-02-28T08:20:50;25.27;;;8.20;;
18647;SDS011;9453;50.294;18.644;2023-02-28T08:23:18;25.53;;;9.57;;
18647;SDS011;9453;50.294;18.644;2023-02-28T08:25:45;28.40;;;9.13;;
18647;SDS011;9453;50.294;18.644;2023-02-28T08:28:21;18.53;;;8.70;;
18647;SDS011;9453;50.294;18.644;2023-02-28T08:30:48;40.73;;;12.37;;
18647;SDS011;9453;50.294;18.644;2023-02-28T08:33:15;29.97;;;11.90;;
18647;SDS011;9453;50.294;18.644;2023-02-28T08:35:42;30.80;;;10.53;;
18647;SDS011;9453;50.294;18.644;2023-02-28T08:38:09;30.23;;;11.20;;
18647;SDS011;9453;50.294;18.644;2023-02-28T08:40:36;30.33;;;10.83;;
18647;SDS011;9453;50.294;18.644;2023-02-28T08:43:03;28.07;;;11.07;;
18647;SDS011;9453;50.294;18.644;2023-02-28T08:45:32;34.50;;;12.60;;
18647;SDS011;9453;50.294;18.644;2023-02-28T08:47:59;34.67;;;13.37;;
18647;SDS011;9453;50.294;18.644;2023-02-28T08:50:26;35.90;;;11.80;;
18647;SDS011;9453;50.294;18.644;2023-02-28T08:52:53;29.10;;;10.33;;
18647;SDS011;9453;50.294;18.644;2023-02-28T08:55:20;21.53;;;8.83;;
18647;SDS011;9453;50.294;18.644;2023-02-28T08:57:48;28.77;;;10.77;;
18647;SDS011;9453;50.294;18.644;2023-02-28T09:00:16;28.50;;;10.33;;
18647;SDS011;9453;50.294;18.644;2023-02-28T09:02:45;26.57;;;10.03;;
18647;SDS011;9453;50.294;18.644;2023-02-28T09:05:12;26.07;;;9.30;;
18647;SDS011;9453;50.294;18.644;2023-02-28T09:07:39;22.83;;;8.93;;
18647;SDS011;9453;50.294;18.644;2023-02-28T09:10:06;23.40;;;8.87;;
18647;SDS011;9453;50.294;18.644;2023-02-28T09:12:34;21.43;;;8.57;;
18647;SDS011;9453;50.294;18.644;2023-02-28T09:15:02;26.20;;;8.80;;
18647;SDS011;9453;50.294;18.644;2023-02-28T09:17:30;34.37;;;12.97;;
18647;SDS011;9453;50.294;18.644;2023-02-28T09:19:59;24.03;;;10.53;;
18647;SDS011;9453;50.294;18.644;2023-02-28T09:22:26;18.97;;;7.57;;
18647;SDS011;9453;50.294;18.644;2023-02-28T09:24:56;18.07;;;7.30;;
18647;SDS011;9453;50.294;18.644;2023-02-28T09:27:23;16.63;;;6.83;;
18647;SDS011;9453;50.294;18.644;2023-02-28T09:29:50;17.47;;;7.27;;
18647;SDS011;9453;50.294;18.644;2023-02-28T09:32:17;18.37;;;7.90;;
18647;SDS011;9453;50.294;18.644;2023-02-28T09:34:44;19.37;;;8.40;;
18647;SDS011;9453;50.294;18.644;2023-02-28T09:37:12;17.87;;;7.13;;
18647;SDS011;9453;50.294;18.644;2023-02-28T09:39:40;18.07;;;7.20;;
18647;SDS011;9453;50.294;18.644;2023-02-28T09:42:11;18.93;;;7.77;;
18647;SDS011;9453;50.294;18.644;2023-02-28T09:44:47;17.77;;;7.57;;
18647;SDS011;9453;50.294;18.644;2023-02-28T09:47:17;24.07;;;10.03;;
18647;SDS011;9453;50.294;18.644;2023-02-28T09:49:51;27.00;;;10.33;;
18647;SDS011;9453;50.294;18.644;2023-02-28T09:52:21;23.53;;;9.47;;
18647;SDS011;9453;50.294;18.644;2023-02-28T09:54:54;25.70;;;9.53;;
18647;SDS011;9453;50.294;18.644;2023-02-28T09:57:33;19.47;;;7.70;;
18647;SDS011;9453;50.294;18.644;2023-02-28T10:00:06;17.50;;;7.90;;
18647;SDS011;9453;50.294;18.644;2023-02-28T10:02:46;25.17;;;8.90;;
18647;SDS011;9453;50.294;18.644;2023-02-28T10:05:25;21.37;;;8.30;;
18647;SDS011;9453;50.294;18.644;2023-02-28T10:10:24;25.07;;;8.70;;
18647;SDS011;9453;50.294;18.644;2023-02-28T10:12:56;25.23;;;9.13;;
18647;SDS011;9453;50.294;18.644;2023-02-28T10:15:27;21.07;;;7.93;;
18647;SDS011;9453;50.294;18.644;2023-02-28T10:17:58;19.50;;;8.40;;
18647;SDS011;9453;50.294;18.644;2023-02-28T10:20:29;28.00;;;9.23;;
18647;SDS011;9453;50.294;18.644;2023-02-28T10:23:03;21.30;;;8.70;;
18647;SDS011;9453;50.294;18.644;2023-02-28T10:25:37;21.83;;;9.23;;
18647;SDS011;9453;50.294;18.644;2023-02-28T10:28:09;35.57;;;11.03;;
18647;SDS011;9453;50.294;18.644;2023-02-28T10:30:38;23.03;;;9.17;;
18647;SDS011;9453;50.294;18.644;2023-02-28T10:33:10;32.30;;;9.80;;
18647;SDS011;9453;50.294;18.644;2023-02-28T10:35:45;29.83;;;9.60;;
18647;SDS011;9453;50.294;18.644;2023-02-28T10:38:16;22.20;;;9.10;;
18647;SDS011;9453;50.294;18.644;2023-02-28T10:40:47;18.80;;;8.10;;
18647;SDS011;9453;50.294;18.644;2023-02-28T10:43:18;24.47;;;8.53;;
18647;SDS011;9453;50.294;18.644;2023-02-28T10:45:56;28.30;;;10.57;;
18647;SDS011;9453;50.294;18.644;2023-02-28T10:48:27;27.47;;;10.60;;
18647;SDS011;9453;50.294;18.644;2023-02-28T10:50:57;29.13;;;8.77;;
18647;SDS011;9453;50.294;18.644;2023-02-28T10:53:30;24.53;;;9.27;;
18647;SDS011;9453;50.294;18.644;2023-02-28T10:56:02;32.00;;;10.17;;
18647;SDS011;9453;50.294;18.644;2023-02-28T10:58:34;24.10;;;9.43;;
18647;SDS011;9453;50.294;18.644;2023-02-28T11:01:14;22.23;;;8.60;;
18647;SDS011;9453;50.294;18.644;2023-02-28T11:03:43;23.97;;;9.60;;
18647;SDS011;9453;50.294;18.644;2023-02-28T11:06:13;28.63;;;9.60;;
18647;SDS011;9453;50.294;18.644;2023-02-28T11:08:43;22.47;;;9.27;;
18647;SDS011;9453;50.294;18.644;2023-02-28T11:11:14;21.33;;;8.80;;
18647;SDS011;9453;50.294;18.644;2023-02-28T11:13:43;20.73;;;9.40;;
18647;SDS011;9453;50.294;18.644;2023-02-28T11:16:13;20.10;;;8.37;;
18647;SDS011;9453;50.294;18.644;2023-02-28T11:18:42;26.87;;;9.83;;
18647;SDS011;9453;50.294;18.644;2023-02-28T11:21:19;25.90;;;11.00;;
18647;SDS011;9453;50.294;18.644;2023-02-28T11:23:49;24.37;;;10.80;;
18647;SDS011;9453;50.294;18.644;2023-02-28T11:29:16;26.23;;;9.87;;
18647;SDS011;9453;50.294;18.644;2023-02-28T11:34:42;29.63;;;10.23;;
18647;SDS011;9453;50.294;18.644;2023-02-28T11:37:13;25.60;;;10.40;;
18647;SDS011;9453;50.294;18.644;2023-02-28T11:39:43;23.60;;;9.90;;
18647;SDS011;9453;50.294;18.644;2023-02-28T11:42:18;27.80;;;9.93;;
18647;SDS011;9453;50.294;18.644;2023-02-28T11:45:00;24.47;;;10.23;;
18647;SDS011;9453;50.294;18.644;2023-02-28T11:47:39;26.80;;;10.87;;
18647;SDS011;9453;50.294;18.644;2023-02-28T11:50:16;31.83;;;11.60;;
18647;SDS011;9453;50.294;18.644;2023-02-28T11:52:53;34.87;;;11.67;;
18647;SDS011;9453;50.294;18.644;2023-02-28T11:55:24;26.57;;;10.80;;
18647;SDS011;9453;50.294;18.644;2023-02-28T11:58:02;28.13;;;11.67;;
18647;SDS011;9453;50.294;18.644;2023-02-28T12:00:49;29.23;;;12.20;;
18647;SDS011;9453;50.294;18.644;2023-02-28T12:03:42;26.40;;;10.63;;
18647;SDS011;9453;50.294;18.644;2023-02-28T12:06:18;22.60;;;10.13;;
18647;SDS011;9453;50.294;18.644;2023-02-28T12:08:57;24.43;;;9.80;;
18647;SDS011;9453;50.294;18.644;2023-02-28T12:11:34;39.43;;;11.23;;
18647;SDS011;9453;50.294;18.644;2023-02-28T12:17:13;22.77;;;9.37;;
18647;SDS011;9453;50.294;18.644;2023-02-28T12:19:56;21.73;;;8.67;;
18647;SDS011;9453;50.294;18.644;2023-02-28T12:22:28;17.67;;;8.50;;
18647;SDS011;9453;50.294;18.644;2023-02-28T12:28:01;21.60;;;9.13;;
18647;SDS011;9453;50.294;18.644;2023-02-28T12:30:30;25.90;;;9.63;;
18647;SDS011;9453;50.294;18.644;2023-02-28T12:33:01;27.37;;;9.77;;
18647;SDS011;9453;50.294;18.644;2023-02-28T12:35:32;24.53;;;9.23;;
18647;SDS011;9453;50.294;18.644;2023-02-28T12:38:04;22.33;;;8.93;;
18647;SDS011;9453;50.294;18.644;2023-02-28T12:40:41;21.97;;;9.47;;
18647;SDS011;9453;50.294;18.644;2023-02-28T12:43:12;22.70;;;8.80;;
18647;SDS011;9453;50.294;18.644;2023-02-28T12:45:44;18.43;;;8.00;;
18647;SDS011;9453;50.294;18.644;2023-02-28T12:48:15;19.63;;;8.50;;
18647;SDS011;9453;50.294;18.644;2023-02-28T12:50:47;18.67;;;7.87;;
18647;SDS011;9453;50.294;18.644;2023-02-28T12:53:17;19.27;;;7.43;;
18647;SDS011;9453;50.294;18.644;2023-02-28T12:55:54;19.93;;;8.00;;
18647;SDS011;9453;50.294;18.644;2023-02-28T12:58:29;21.63;;;7.60;;
18647;SDS011;9453;50.294;18.644;2023-02-28T13:01:10;22.17;;;8.50;;
18647;SDS011;9453;50.294;18.644;2023-02-28T13:06:59;25.67;;;8.40;;
18647;SDS011;9453;50.294;18.644;2023-02-28T13:09:48;17.20;;;7.37;;
18647;SDS011;9453;50.294;18.644;2023-02-28T13:12:18;19.43;;;8.20;;
18647;SDS011;9453;50.294;18.644;2023-02-28T13:14:47;19.30;;;8.10;;
18647;SDS011;9453;50.294;18.644;2023-02-28T13:19:57;18.97;;;7.53;;
18647;SDS011;9453;50.294;18.644;2023-02-28T13:22:39;18.97;;;8.70;;
18647;SDS011;9453;50.294;18.644;2023-02-28T13:34:34;22.00;;;8.10;;
18647;SDS011;9453;50.294;18.644;2023-02-28T13:40:22;20.80;;;8.00;;
18647;SDS011;9453;50.294;18.644;2023-02-28T13:42:54;23.00;;;7.67;;
18647;SDS011;9453;50.294;18.644;2023-02-28T13:45:25;14.60;;;7.00;;
18647;SDS011;9453;50.294;18.644;2023-02-28T13:56:05;18.10;;;7.67;;
18647;SDS011;9453;50.294;18.644;2023-02-28T13:58:48;21.73;;;8.50;;
18647;SDS011;9453;50.294;18.644;2023-02-28T14:01:29;23.13;;;7.77;;
18647;SDS011;9453;50.294;18.644;2023-02-28T14:04:21;17.97;;;7.87;;
18647;SDS011;9453;50.294;18.644;2023-02-28T14:07:07;21.30;;;8.37;;
18647;SDS011;9453;50.294;18.644;2023-02-28T14:09:36;24.43;;;8.67;;
18647;SDS011;9453;50.294;18.644;2023-02-28T14:15:27;17.57;;;7.13;;
18647;SDS011;9453;50.294;18.644;2023-02-28T14:18:16;23.20;;;7.13;;
18647;SDS011;9453;50.294;18.644;2023-02-28T14:20:52;15.07;;;6.43;;
18647;SDS011;9453;50.294;18.644;2023-02-28T14:23:26;26.37;;;7.87;;
18647;SDS011;9453;50.294;18.644;2023-02-28T14:26:03;20.10;;;8.73;;
18647;SDS011;9453;50.294;18.644;2023-02-28T14:28:46;16.93;;;7.87;;
18647;SDS011;9453;50.294;18.644;2023-02-28T14:31:24;18.03;;;7.53;;
18647;SDS011;9453;50.294;18.644;2023-02-28T14:34:12;16.33;;;6.83;;
18647;SDS011;9453;50.294;18.644;2023-02-28T14:36:58;17.00;;;7.00;;
18647;SDS011;9453;50.294;18.644;2023-02-28T14:39:28;20.03;;;7.67;;
18647;SDS011;9453;50.294;18.644;2023-02-28T14:41:57;21.50;;;7.83;;
18647;SDS011;9453;50.294;18.644;2023-02-28T14:44:28;19.17;;;7.73;;
18647;SDS011;9453;50.294;18.644;2023-02-28T14:49:23;23.63;;;8.30;;
18647;SDS011;9453;50.294;18.644;2023-02-28T14:52:01;21.77;;;7.43;;
18647;SDS011;9453;50.294;18.644;2023-02-28T14:54:37;18.60;;;8.10;;
18647;SDS011;9453;50.294;18.644;2023-02-28T14:57:05;17.37;;;7.90;;
18647;SDS011;9453;50.294;18.644;2023-02-28T14:59:33;16.33;;;6.90;;
18647;SDS011;9453;50.294;18.644;2023-02-28T15:02:15;18.93;;;7.67;;
18647;SDS011;9453;50.294;18.644;2023-02-28T15:04:55;17.30;;;7.83;;
18647;SDS011;9453;50.294;18.644;2023-02-28T15:07:23;22.80;;;7.87;;
18647;SDS011;9453;50.294;18.644;2023-02-28T15:10:09;18.40;;;8.40;;
18647;SDS011;9453;50.294;18.644;2023-02-28T15:12:40;17.53;;;7.40;;
18647;SDS011;9453;50.294;18.644;2023-02-28T15:15:14;20.83;;;8.07;;
18647;SDS011;9453;50.294;18.644;2023-02-28T15:17:42;23.97;;;8.27;;
18647;SDS011;9453;50.294;18.644;2023-02-28T15:20:14;22.00;;;7.97;;
18647;SDS011;9453;50.294;18.644;2023-02-28T15:22:43;21.23;;;7.50;;
18647;SDS011;9453;50.294;18.644;2023-02-28T15:25:13;23.87;;;9.67;;
18647;SDS011;9453;50.294;18.644;2023-02-28T15:27:50;26.07;;;8.53;;
18647;SDS011;9453;50.294;18.644;2023-02-28T15:30:19;19.40;;;7.73;;
18647;SDS011;9453;50.294;18.644;2023-02-28T15:33:01;20.40;;;8.37;;
18647;SDS011;9453;50.294;18.644;2023-02-28T15:35:35;23.63;;;8.27;;
18647;SDS011;9453;50.294;18.644;2023-02-28T15:38:03;24.53;;;7.83;;
18647;SDS011;9453;50.294;18.644;2023-02-28T15:40:43;21.97;;;7.70;;
18647;SDS011;9453;50.294;18.644;2023-02-28T15:43:22;16.50;;;7.37;;
18647;SDS011;9453;50.294;18.644;2023-02-28T15:45:51;17.13;;;6.57;;
18647;SDS011;9453;50.294;18.644;2023-02-28T15:48:22;16.10;;;6.93;;
18647;SDS011;9453;50.294;18.644;2023-02-28T15:50:53;15.53;;;6.93;;
18647;SDS011;9453;50.294;18.644;2023-02-28T15:53:23;17.37;;;7.53;;
18647;SDS011;9453;50.294;18.644;2023-02-28T15:55:57;18.70;;;7.07;;
18647;SDS011;9453;50.294;18.644;2023-02-28T15:58:27;21.70;;;7.67;;
18647;SDS011;9453;50.294;18.644;2023-02-28T16:01:05;24.43;;;8.27;;
18647;SDS011;9453;50.294;18.644;2023-02-28T16:03:38;21.30;;;9.27;;
18647;SDS011;9453;50.294;18.644;2023-02-28T16:06:21;22.03;;;8.67;;
18647;SDS011;9453;50.294;18.644;2023-02-28T16:09:05;26.70;;;10.37;;
18647;SDS011;9453;50.294;18.644;2023-02-28T16:11:37;23.10;;;9.37;;
18647;SDS011;9453;50.294;18.644;2023-02-28T16:14:10;29.23;;;8.67;;
18647;SDS011;9453;50.294;18.644;2023-02-28T16:19:28;21.90;;;9.63;;
18647;SDS011;9453;50.294;18.644;2023-02-28T16:21:58;22.47;;;9.60;;
18647;SDS011;9453;50.294;18.644;2023-02-28T16:24:25;22.33;;;9.80;;
18647;SDS011;9453;50.294;18.644;2023-02-28T16:26:52;24.40;;;9.00;;
18647;SDS011;9453;50.294;18.644;2023-02-28T16:29:23;22.60;;;9.93;;
18647;SDS011;9453;50.294;18.644;2023-02-28T16:31:51;27.03;;;10.20;;
18647;SDS011;9453;50.294;18.644;2023-02-28T16:34:18;32.93;;;11.63;;
18647;SDS011;9453;50.294;18.644;2023-02-28T16:36:46;33.17;;;12.17;;
18647;SDS011;9453;50.294;18.644;2023-02-28T16:39:14;30.87;;;10.60;;
18647;SDS011;9453;50.294;18.644;2023-02-28T16:41:42;41.00;;;13.37;;
18647;SDS011;9453;50.294;18.644;2023-02-28T16:44:11;37.97;;;14.03;;
18647;SDS011;9453;50.294;18.644;2023-02-28T16:46:44;39.90;;;14.03;;
18647;SDS011;9453;50.294;18.644;2023-02-28T16:49:12;40.00;;;13.53;;
18647;SDS011;9453;50.294;18.644;2023-02-28T16:51:39;35.47;;;12.00;;
18647;SDS011;9453;50.294;18.644;2023-02-28T16:54:09;36.63;;;13.50;;
18647;SDS011;9453;50.294;18.644;2023-02-28T16:56:46;34.70;;;13.47;;
18647;SDS011;9453;50.294;18.644;2023-02-28T16:59:15;35.03;;;12.70;;
18647;SDS011;9453;50.294;18.644;2023-02-28T17:01:45;43.20;;;14.43;;
18647;SDS011;9453;50.294;18.644;2023-02-28T17:04:12;27.60;;;10.60;;
18647;SDS011;9453;50.294;18.644;2023-02-28T17:06:40;38.10;;;14.77;;
18647;SDS011;9453;50.294;18.644;2023-02-28T17:09:10;35.50;;;13.93;;
18647;SDS011;9453;50.294;18.644;2023-02-28T17:11:45;30.13;;;12.43;;
18647;SDS011;9453;50.294;18.644;2023-02-28T17:16:46;32.83;;;12.67;;
18647;SDS011;9453;50.294;18.644;2023-02-28T17:19:14;38.63;;;14.33;;
18647;SDS011;9453;50.294;18.644;2023-02-28T17:21:49;38.37;;;13.57;;
18647;SDS011;9453;50.294;18.644;2023-02-28T17:24:33;43.60;;;15.63;;
18647;SDS011;9453;50.294;18.644;2023-02-28T17:27:00;44.93;;;13.70;;
18647;SDS011;9453;50.294;18.644;2023-02-28T17:29:28;41.13;;;14.87;;
18647;SDS011;9453;50.294;18.644;2023-02-28T17:35:06;37.77;;;14.27;;
18647;SDS011;9453;50.294;18.644;2023-02-28T17:37:48;38.27;;;12.63;;
18647;SDS011;9453;50.294;18.644;2023-02-28T17:40:17;31.23;;;12.27;;
18647;SDS011;9453;50.294;18.644;2023-02-28T17:42:47;30.50;;;12.33;;
18647;SDS011;9453;50.294;18.644;2023-02-28T17:45:17;38.23;;;13.97;;
18647;SDS011;9453;50.294;18.644;2023-02-28T17:47:45;40.77;;;14.47;;
18647;SDS011;9453;50.294;18.644;2023-02-28T17:50:15;55.20;;;17.23;;
18647;SDS011;9453;50.294;18.644;2023-02-28T17:52:44;51.43;;;17.50;;
18647;SDS011;9453;50.294;18.644;2023-02-28T17:55:12;47.50;;;17.90;;
18647;SDS011;9453;50.294;18.644;2023-02-28T17:57:45;46.90;;;16.63;;
18647;SDS011;9453;50.294;18.644;2023-02-28T18:00:18;41.97;;;16.53;;
18647;SDS011;9453;50.294;18.644;2023-02-28T18:08:43;41.60;;;16.13;;
18647;SDS011;9453;50.294;18.644;2023-02-28T18:11:11;47.27;;;18.90;;
18647;SDS011;9453;50.294;18.644;2023-02-28T18:14:21;56.23;;;19.07;;
18647;SDS011;9453;50.294;18.644;2023-02-28T18:16:50;58.80;;;20.70;;
18647;SDS011;9453;50.294;18.644;2023-02-28T18:19:18;52.57;;;19.23;;
18647;SDS011;9453;50.294;18.644;2023-02-28T18:21:47;53.57;;;19.50;;
18647;SDS011;9453;50.294;18.644;2023-02-28T18:27:36;57.60;;;19.40;;
18647;SDS011;9453;50.294;18.644;2023-02-28T18:33:28;63.80;;;23.27;;
18647;SDS011;9453;50.294;18.644;2023-02-28T18:41:02;69.50;;;24.73;;
18647;SDS011;9453;50.294;18.644;2023-02-28T18:43:33;66.20;;;25.57;;
18647;SDS011;9453;50.294;18.644;2023-02-28T18:46:03;65.20;;;23.20;;
18647;SDS011;9453;50.294;18.644;2023-02-28T18:48:32;70.33;;;24.30;;
18647;SDS011;9453;50.294;18.644;2023-02-28T18:51:06;67.33;;;22.57;;
18647;SDS011;9453;50.294;18.644;2023-02-28T18:56:55;67.57;;;27.37;;
18647;SDS011;9453;50.294;18.644;2023-02-28T19:00:00;72.43;;;25.97;;
18647;SDS011;9453;50.294;18.644;2023-02-28T19:02:21;70.70;;;26.57;;
18647;SDS011;9453;50.294;18.644;2023-02-28T19:05:06;70.13;;;27.70;;
18647;SDS011;9453;50.294;18.644;2023-02-28T19:07:35;84.63;;;28.83;;
18647;SDS011;9453;50.294;18.644;2023-02-28T19:10:02;79.87;;;27.17;;
18647;SDS011;9453;50.294;18.644;2023-02-28T19:12:32;96.67;;;30.80;;
18647;SDS011;9453;50.294;18.644;2023-02-28T19:15:03;73.07;;;26.37;;
18647;SDS011;9453;50.294;18.644;2023-02-28T19:17:31;84.33;;;26.30;;
18647;SDS011;9453;50.294;18.644;2023-02-28T19:23:13;99.90;;;32.73;;
18647;SDS011;9453;50.294;18.644;2023-02-28T19:26:07;94.60;;;32.63;;
18647;SDS011;9453;50.294;18.644;2023-02-28T19:28:47;94.53;;;32.73;;
18647;SDS011;9453;50.294;18.644;2023-02-28T19:31:27;98.37;;;31.30;;
18647;SDS011;9453;50.294;18.644;2023-02-28T19:34:11;91.20;;;31.30;;
18647;SDS011;9453;50.294;18.644;2023-02-28T19:36:57;87.87;;;29.10;;
18647;SDS011;9453;50.294;18.644;2023-02-28T19:39:38;87.27;;;31.50;;
18647;SDS011;9453;50.294;18.644;2023-02-28T19:42:12;82.77;;;29.17;;
18647;SDS011;9453;50.294;18.644;2023-02-28T19:47:41;76.10;;;29.73;;
18647;SDS011;9453;50.294;18.644;2023-02-28T19:50:12;69.07;;;26.97;;
18647;SDS011;9453;50.294;18.644;2023-02-28T19:53:23;94.10;;;30.57;;
18647;SDS011;9453;50.294;18.644;2023-02-28T19:56:02;101.63;;;35.60;;
18647;SDS011;9453;50.294;18.644;2023-02-28T19:59:05;86.80;;;31.17;;
18647;SDS011;9453;50.294;18.644;2023-02-28T20:02:03;97.10;;;35.17;;
18647;SDS011;9453;50.294;18.644;2023-02-28T20:04:33;94.50;;;34.00;;
18647;SDS011;9453;50.294;18.644;2023-02-28T20:07:20;99.63;;;35.27;;
18647;SDS011;9453;50.294;18.644;2023-02-28T20:16:21;103.53;;;35.87;;
18647;SDS011;9453;50.294;18.644;2023-02-28T20:19:25;94.57;;;34.87;;
18647;SDS011;9453;50.294;18.644;2023-02-28T20:22:41;113.47;;;39.07;;
18647;SDS011;9453;50.294;18.644;2023-02-28T20:25:18;117.97;;;38.33;;
18647;SDS011;9453;50.294;18.644;2023-02-28T20:39:54;102.67;;;34.80;;
18647;SDS011;9453;50.294;18.644;2023-02-28T20:42:22;83.50;;;33.33;;
18647;SDS011;9453;50.294;18.644;2023-02-28T20:47:41;82.87;;;28.73;;
18647;SDS011;9453;50.294;18.644;2023-02-28T20:50:37;70.77;;;26.67;;
18647;SDS011;9453;50.294;18.644;2023-02-28T20:57:43;83.70;;;29.10;;
18647;SDS011;9453;50.294;18.644;2023-02-28T21:00:14;110.90;;;37.80;;
18647;SDS011;9453;50.294;18.644;2023-02-28T21:09:13;87.40;;;30.03;;
18647;SDS011;9453;50.294;18.644;2023-02-28T21:11:51;90.20;;;30.13;;
18647;SDS011;9453;50.294;18.644;2023-02-28T21:14:22;88.10;;;29.93;;
18647;SDS011;9453;50.294;18.644;2023-02-28T21:25:57;92.23;;;32.20;;
18647;SDS011;9453;50.294;18.644;2023-02-28T21:28:39;90.83;;;30.23;;
18647;SDS011;9453;50.294;18.644;2023-02-28T21:34:50;88.17;;;30.70;;
18647;SDS011;9453;50.294;18.644;2023-02-28T21:41:30;101.00;;;34.53;;
18647;SDS011;9453;50.294;18.644;2023-02-28T21:43:57;117.23;;;37.23;;
18647;SDS011;9453;50.294;18.644;2023-02-28T21:47:15;99.23;;;35.70;;
18647;SDS011;9453;50.294;18.644;2023-02-28T21:52:35;94.30;;;33.07;;
18647;SDS011;9453;50.294;18.644;2023-02-28T22:01:55;96.20;;;31.60;;
18647;SDS011;9453;50.294;18.644;2023-02-28T22:04:31;100.33;;;34.93;;
18647;SDS011;9453;50.294;18.644;2023-02-28T22:07:01;99.80;;;34.33;;
18647;SDS011;9453;50.294;18.644;2023-02-28T22:09:31;103.50;;;36.23;;
18647;SDS011;9453;50.294;18.644;2023-02-28T22:12:53;112.43;;;37.67;;
18647;SDS011;9453;50.294;18.644;2023-02-28T22:15:22;104.20;;;36.53;;
18647;SDS011;9453;50.294;18.644;2023-02-28T22:17:55;143.93;;;42.67;;
18647;SDS011;9453;50.294;18.644;2023-02-28T22:23:31;133.47;;;42.93;;
18647;SDS011;9453;50.294;18.644;2023-02-28T22:27:53;99.83;;;34.63;;